Time;durP1;ratioP1;P1;durP2;ratioP2;P2;SDS_P1;SDS_P2;PMS_P1;PMS_P2;Temp;Humidity;BMP_temperature;BMP_pressure;BME280_temperature;BME280_humidity;BME280_pressure;Samples;Min_cycle;Max_cycle;Signal;HPM_P1;HPM_P2
2021/06/05 00:01:59;;;;;;;7.20;6.50;;;;;;;;;;5168687;27;20453;-80
2021/06/05 00:04:27;;;;;;;8.70;7.00;;;;;;;;;;5167533;27;20477;-78
2021/06/05 00:06:54;;;;;;;8.83;7.97;;;;;;;;;;5168442;27;20529;-80
2021/06/05 00:09:24;;;;;;;10.00;7.33;;;;;;;;;;5168089;27;20512;-79
2021/06/05 00:11:51;;;;;;;8.70;7.63;;;;;;;;;;5167230;27;20495;-80
2021/06/05 00:14:21;;;;;;;9.23;7.43;;;;;;;;;;5165333;27;20499;-80
2021/06/05 00:16:50;;;;;;;15.80;11.63;;;;;;;;;;5166718;27;20512;-79
2021/06/05 00:19:18;;;;;;;9.53;7.00;;;;;;;;;;5167369;27;20536;-80
2021/06/05 00:21:45;;;;;;;7.23;6.60;;;;;;;;;;5165509;27;20539;-80
2021/06/05 00:24:13;;;;;;;8.60;7.30;;;;;;;;;;5165834;27;20452;-78
2021/06/05 00:26:40;;;;;;;7.67;6.87;;;;;;;;;;5164757;27;20452;-79
2021/06/05 00:29:08;;;;;;;7.80;6.13;;;;;;;;;;5168496;27;20845;-79
2021/06/05 00:31:35;;;;;;;8.63;6.73;;;;;;;;;;5169377;27;20441;-80
2021/06/05 00:34:10;;;;;;;8.57;7.20;;;;;;;;;;5169623;27;20520;-81
2021/06/05 00:36:37;;;;;;;8.07;6.20;;;;;;;;;;5168639;27;20480;-80
2021/06/05 00:39:05;;;;;;;8.00;6.90;;;;;;;;;;5168274;27;20505;-81
2021/06/05 00:41:32;;;;;;;7.93;6.27;;;;;;;;;;5170051;27;20484;-81
2021/06/05 00:44:00;;;;;;;11.20;8.20;;;;;;;;;;5167837;27;20674;-79
2021/06/05 00:46:29;;;;;;;7.30;6.33;;;;;;;;;;5169771;27;20571;-80
2021/06/05 00:48:57;;;;;;;7.13;5.67;;;;;;;;;;5168418;27;20876;-80
2021/06/05 00:51:30;;;;;;;6.73;5.93;;;;;;;;;;5169815;27;20449;-80
2021/06/05 00:53:59;;;;;;;10.83;8.10;;;;;;;;;;5168077;27;20470;-80
2021/06/05 00:56:26;;;;;;;8.87;7.90;;;;;;;;;;5153969;27;20724;-80
2021/06/05 00:58:53;;;;;;;6.80;6.00;;;;;;;;;;5169875;27;20456;-80
2021/06/05 01:01:22;;;;;;;9.83;6.77;;;;;;;;;;5169597;27;20477;-79
2021/06/05 01:03:50;;;;;;;13.07;10.33;;;;;;;;;;5169567;27;20881;-79
2021/06/05 01:06:18;;;;;;;8.53;5.80;;;;;;;;;;5167915;27;20531;-79
2021/06/05 01:08:53;;;;;;;8.60;6.20;;;;;;;;;;5168713;27;20516;-78
2021/06/05 01:11:25;;;;;;;7.10;5.93;;;;;;;;;;5168575;27;20472;-79
2021/06/05 01:13:55;;;;;;;7.30;5.57;;;;;;;;;;5165482;27;20453;-80
2021/06/05 01:16:24;;;;;;;7.40;6.10;;;;;;;;;;5167288;27;20677;-80
2021/06/05 01:18:52;;;;;;;9.07;8.10;;;;;;;;;;5168016;27;20472;-78
2021/06/05 01:21:37;;;;;;;8.40;7.17;;;;;;;;;;5166779;27;20492;-80
2021/06/05 01:24:18;;;;;;;7.83;6.37;;;;;;;;;;5167135;27;20513;-78
2021/06/05 01:26:49;;;;;;;8.00;5.90;;;;;;;;;;5170377;27;20488;-78
2021/06/05 01:29:18;;;;;;;7.07;6.10;;;;;;;;;;5168328;27;20457;-79
2021/06/05 01:31:47;;;;;;;7.00;5.97;;;;;;;;;;5166842;27;20461;-80
2021/06/05 01:34:14;;;;;;;8.03;5.80;;;;;;;;;;5168212;27;20449;-80
2021/06/05 01:36:43;;;;;;;8.20;5.87;;;;;;;;;;5164556;27;20887;-80
2021/06/05 01:39:12;;;;;;;6.40;5.60;;;;;;;;;;5169041;27;20834;-78
2021/06/05 01:41:41;;;;;;;7.40;5.53;;;;;;;;;;5168401;27;20540;-80
2021/06/05 01:44:10;;;;;;;8.77;5.40;;;;;;;;;;5169343;27;20449;-82
2021/06/05 01:46:39;;;;;;;6.97;6.27;;;;;;;;;;5167318;27;20487;-80
2021/06/05 01:49:06;;;;;;;6.87;6.23;;;;;;;;;;5168122;27;20481;-80
2021/06/05 01:51:35;;;;;;;7.90;6.00;;;;;;;;;;5167269;27;20533;-80
2021/06/05 01:54:04;;;;;;;7.23;6.40;;;;;;;;;;5149301;27;20489;-79
2021/06/05 01:56:33;;;;;;;9.00;7.80;;;;;;;;;;5148255;27;20504;-80
2021/06/05 01:59:00;;;;;;;8.33;6.40;;;;;;;;;;5148675;27;20505;-80
2021/06/05 02:01:29;;;;;;;8.13;6.17;;;;;;;;;;5159393;27;20751;-80
2021/06/05 02:03:56;;;;;;;6.70;6.00;;;;;;;;;;5167564;27;20483;-80
2021/06/05 02:06:24;;;;;;;15.17;7.13;;;;;;;;;;5167279;27;20722;-79
2021/06/05 02:08:52;;;;;;;9.17;5.77;;;;;;;;;;5168456;27;20476;-80
2021/06/05 02:11:20;;;;;;;10.40;6.27;;;;;;;;;;5167515;27;20448;-79
2021/06/05 02:13:50;;;;;;;8.40;7.50;;;;;;;;;;5167896;27;20512;-80
2021/06/05 02:16:21;;;;;;;7.50;6.80;;;;;;;;;;5168426;27;20492;-80
2021/06/05 02:18:53;;;;;;;7.70;6.80;;;;;;;;;;5167557;27;20772;-79
2021/06/05 02:21:21;;;;;;;7.77;6.93;;;;;;;;;;5166748;27;20535;-79
2021/06/05 02:23:49;;;;;;;7.57;6.77;;;;;;;;;;5164900;27;20512;-80
2021/06/05 02:26:18;;;;;;;10.50;7.37;;;;;;;;;;5165405;27;20461;-79
2021/06/05 02:28:45;;;;;;;11.87;7.40;;;;;;;;;;5167070;27;20548;-79
2021/06/05 02:31:13;;;;;;;8.07;7.10;;;;;;;;;;5165757;27;20457;-79
2021/06/05 02:33:41;;;;;;;9.57;6.67;;;;;;;;;;5166514;27;20529;-80
2021/06/05 02:36:11;;;;;;;9.40;7.53;;;;;;;;;;5165488;27;20453;-80
2021/06/05 02:38:39;;;;;;;8.50;6.57;;;;;;;;;;5166329;27;20554;-80
2021/06/05 02:41:07;;;;;;;7.13;6.43;;;;;;;;;;5167851;27;20579;-80
2021/06/05 02:43:35;;;;;;;8.27;6.83;;;;;;;;;;5165374;27;20943;-79
2021/06/05 02:46:04;;;;;;;7.50;6.70;;;;;;;;;;5166231;27;20516;-79
2021/06/05 02:48:39;;;;;;;7.90;7.10;;;;;;;;;;5166335;27;20639;-78
2021/06/05 02:51:06;;;;;;;11.20;7.17;;;;;;;;;;5165848;27;20517;-79
2021/06/05 02:53:35;;;;;;;8.17;7.33;;;;;;;;;;5167088;27;20453;-79
2021/06/05 02:56:08;;;;;;;12.83;7.30;;;;;;;;;;5166044;27;20547;-80
2021/06/05 02:58:35;;;;;;;7.50;6.70;;;;;;;;;;5166137;27;20456;-79
2021/06/05 03:01:05;;;;;;;10.30;7.97;;;;;;;;;;5166349;27;20575;-80
2021/06/05 03:03:32;;;;;;;7.33;6.60;;;;;;;;;;5171382;27;20469;-81
2021/06/05 03:05:59;;;;;;;7.63;6.83;;;;;;;;;;5171419;27;20476;-80
2021/06/05 03:08:27;;;;;;;9.30;6.80;;;;;;;;;;5170944;27;20463;-80
2021/06/05 03:10:57;;;;;;;8.97;7.13;;;;;;;;;;5169966;27;20480;-80
2021/06/05 03:13:24;;;;;;;7.43;6.60;;;;;;;;;;5168894;27;20448;-80
2021/06/05 03:15:52;;;;;;;9.50;7.20;;;;;;;;;;5168365;27;20448;-81
2021/06/05 03:18:20;;;;;;;8.47;7.27;;;;;;;;;;5168545;27;20528;-81
2021/06/05 03:20:49;;;;;;;8.87;7.50;;;;;;;;;;5169238;27;20484;-80
2021/06/05 03:23:20;;;;;;;8.03;7.23;;;;;;;;;;5169515;27;20444;-79
2021/06/05 03:25:47;;;;;;;9.93;7.63;;;;;;;;;;5169088;27;20515;-80
2021/06/05 03:28:17;;;;;;;7.93;7.00;;;;;;;;;;5167989;27;20928;-80
2021/06/05 03:30:44;;;;;;;8.97;6.77;;;;;;;;;;5169639;27;20526;-80
2021/06/05 03:33:11;;;;;;;9.77;7.00;;;;;;;;;;5168004;27;20729;-80
2021/06/05 03:35:38;;;;;;;9.53;7.20;;;;;;;;;;5168896;27;20452;-79
2021/06/05 03:38:06;;;;;;;10.17;8.33;;;;;;;;;;5165652;27;20597;-79
2021/06/05 03:40:34;;;;;;;7.53;6.73;;;;;;;;;;5169882;27;20555;-80
2021/06/05 03:43:02;;;;;;;9.57;7.73;;;;;;;;;;5169772;27;20508;-80
2021/06/05 03:45:31;;;;;;;16.63;7.73;;;;;;;;;;5169006;27;20463;-80
2021/06/05 03:48:00;;;;;;;9.20;8.20;;;;;;;;;;5169023;27;20449;-80
2021/06/05 03:50:29;;;;;;;8.50;6.83;;;;;;;;;;5168160;27;20475;-80
2021/06/05 03:52:56;;;;;;;8.20;7.17;;;;;;;;;;5167866;27;20500;-80
2021/06/05 03:55:23;;;;;;;9.27;8.33;;;;;;;;;;5169342;27;20481;-80
2021/06/05 03:57:51;;;;;;;9.73;7.60;;;;;;;;;;5168660;27;20466;-80
2021/06/05 04:00:23;;;;;;;9.17;8.27;;;;;;;;;;5167480;27;20523;-80
2021/06/05 04:02:51;;;;;;;9.87;7.93;;;;;;;;;;5167389;27;20477;-80
2021/06/05 04:05:19;;;;;;;11.70;7.83;;;;;;;;;;5165313;27;20800;-78
2021/06/05 04:07:46;;;;;;;9.63;8.63;;;;;;;;;;5169225;27;20543;-80
2021/06/05 04:10:14;;;;;;;10.60;8.60;;;;;;;;;;5168501;27;20822;-80
2021/06/05 04:12:41;;;;;;;10.63;9.43;;;;;;;;;;5167583;27;20460;-80
2021/06/05 04:15:10;;;;;;;9.17;8.07;;;;;;;;;;5167230;27;20566;-80
2021/06/05 04:17:37;;;;;;;13.43;8.77;;;;;;;;;;5166413;27;20884;-80
2021/06/05 04:20:06;;;;;;;8.73;7.83;;;;;;;;;;5166852;27;20496;-79
2021/06/05 04:22:33;;;;;;;9.63;8.43;;;;;;;;;;5164488;27;20509;-80
2021/06/05 04:25:01;;;;;;;9.80;8.47;;;;;;;;;;5165274;27;20457;-79
2021/06/05 04:27:28;;;;;;;9.47;7.80;;;;;;;;;;5163689;27;20549;-80
2021/06/05 04:29:56;;;;;;;16.67;8.77;;;;;;;;;;5165729;27;20467;-81
2021/06/05 04:32:23;;;;;;;10.37;7.97;;;;;;;;;;5171221;27;20490;-80
2021/06/05 04:34:50;;;;;;;8.33;7.53;;;;;;;;;;5171053;27;20465;-80
2021/06/05 04:37:19;;;;;;;11.63;8.20;;;;;;;;;;5169784;27;20469;-80
2021/06/05 04:39:46;;;;;;;8.63;7.60;;;;;;;;;;5168288;27;20509;-79
2021/06/05 04:42:13;;;;;;;9.70;8.70;;;;;;;;;;5168762;27;20544;-79
2021/06/05 04:44:40;;;;;;;8.47;7.57;;;;;;;;;;5168056;27;20524;-80
2021/06/05 04:47:07;;;;;;;11.43;7.97;;;;;;;;;;5168268;27;20575;-80
2021/06/05 04:49:34;;;;;;;9.90;8.30;;;;;;;;;;5168828;27;20520;-80
2021/06/05 04:52:02;;;;;;;9.33;7.97;;;;;;;;;;5168652;27;20509;-81
2021/06/05 04:54:30;;;;;;;9.97;8.27;;;;;;;;;;5167846;27;20484;-81
2021/06/05 04:56:58;;;;;;;8.13;7.00;;;;;;;;;;5168226;27;20473;-80
2021/06/05 04:59:25;;;;;;;9.90;7.20;;;;;;;;;;5168534;27;20460;-80
2021/06/05 05:01:52;;;;;;;9.07;7.50;;;;;;;;;;5167980;27;20461;-79
2021/06/05 05:04:19;;;;;;;8.27;7.00;;;;;;;;;;5168957;27;20524;-80
2021/06/05 05:06:46;;;;;;;7.80;6.90;;;;;;;;;;5167033;27;20521;-80
2021/06/05 05:09:14;;;;;;;8.27;7.47;;;;;;;;;;5166858;27;20922;-80
2021/06/05 05:11:43;;;;;;;11.40;7.90;;;;;;;;;;5167391;27;20449;-79
2021/06/05 05:14:10;;;;;;;8.40;6.90;;;;;;;;;;5166588;27;20706;-79
2021/06/05 05:16:38;;;;;;;7.70;6.73;;;;;;;;;;5167216;27;20508;-80
2021/06/05 05:19:05;;;;;;;8.33;6.93;;;;;;;;;;5165980;27;20617;-79
2021/06/05 05:21:33;;;;;;;9.13;7.13;;;;;;;;;;5165849;27;20496;-80
2021/06/05 05:24:00;;;;;;;9.30;7.07;;;;;;;;;;5163009;27;20862;-79
2021/06/05 05:26:28;;;;;;;7.10;6.40;;;;;;;;;;5167850;27;20473;-79
2021/06/05 05:28:57;;;;;;;8.03;7.20;;;;;;;;;;5168328;27;20618;-79
2021/06/05 05:31:27;;;;;;;8.67;7.77;;;;;;;;;;5168106;27;20514;-79
2021/06/05 05:33:54;;;;;;;7.47;6.77;;;;;;;;;;5167231;27;20456;-80
2021/06/05 05:36:23;;;;;;;10.10;7.50;;;;;;;;;;5166703;27;20520;-79
2021/06/05 05:38:50;;;;;;;10.70;7.27;;;;;;;;;;5165648;27;20545;-80
2021/06/05 05:41:18;;;;;;;8.23;6.60;;;;;;;;;;5165911;27;20552;-80
2021/06/05 05:43:45;;;;;;;7.23;6.53;;;;;;;;;;5166048;27;20488;-80
2021/06/05 05:46:14;;;;;;;8.30;7.07;;;;;;;;;;5165210;27;20465;-79
2021/06/05 05:48:41;;;;;;;10.60;6.60;;;;;;;;;;5166706;27;20457;-80
2021/06/05 05:51:10;;;;;;;8.23;7.03;;;;;;;;;;5165192;27;20559;-79
2021/06/05 05:53:39;;;;;;;9.60;7.10;;;;;;;;;;5166514;27;20963;-79
2021/06/05 05:59:10;;;;;;;9.27;7.00;;;;;;;;;;5165287;27;20408;-79
2021/06/05 06:01:39;;;;;;;8.40;7.30;;;;;;;;;;5165753;27;20556;-79
2021/06/05 06:04:06;;;;;;;10.20;7.90;;;;;;;;;;5151736;27;20938;-79
2021/06/05 06:06:37;;;;;;;7.70;6.83;;;;;;;;;;5175724;27;20490;-80
2021/06/05 06:09:05;;;;;;;8.30;7.40;;;;;;;;;;5187667;27;20450;-80
2021/06/05 06:11:32;;;;;;;7.33;6.53;;;;;;;;;;5160438;27;20458;-80
2021/06/05 06:14:00;;;;;;;7.97;6.20;;;;;;;;;;5166182;27;20605;-78
2021/06/05 06:16:27;;;;;;;8.17;7.37;;;;;;;;;;5169046;27;20488;-80
2021/06/05 06:18:56;;;;;;;8.13;5.93;;;;;;;;;;5165963;27;20863;-79
2021/06/05 06:21:24;;;;;;;9.90;7.00;;;;;;;;;;5185021;27;20528;-80
2021/06/05 06:23:51;;;;;;;7.20;6.50;;;;;;;;;;5172283;27;20464;-79
2021/06/05 06:26:19;;;;;;;9.43;7.13;;;;;;;;;;5166466;27;20500;-79
2021/06/05 06:28:46;;;;;;;7.93;7.10;;;;;;;;;;5165211;27;20464;-80
2021/06/05 06:31:14;;;;;;;7.63;6.63;;;;;;;;;;5164360;27;20468;-79
2021/06/05 06:33:42;;;;;;;9.00;6.47;;;;;;;;;;5165205;27;20449;-78
2021/06/05 06:36:11;;;;;;;14.87;8.17;;;;;;;;;;5172404;27;20764;-78
2021/06/05 06:38:40;;;;;;;7.57;6.77;;;;;;;;;;5183414;27;20544;-80
2021/06/05 06:41:09;;;;;;;9.90;6.67;;;;;;;;;;5180752;27;20491;-79
2021/06/05 06:43:37;;;;;;;9.10;7.10;;;;;;;;;;5184291;27;20451;-80
2021/06/05 06:46:05;;;;;;;8.00;6.00;;;;;;;;;;5169101;27;20464;-80
2021/06/05 06:48:32;;;;;;;9.17;6.70;;;;;;;;;;5173085;27;20479;-80
2021/06/05 06:51:00;;;;;;;8.20;6.77;;;;;;;;;;5185344;27;20487;-79
2021/06/05 06:53:29;;;;;;;7.50;6.67;;;;;;;;;;5181232;27;20457;-79
2021/06/05 06:55:56;;;;;;;7.17;6.30;;;;;;;;;;5151661;27;20466;-81
2021/06/05 06:58:23;;;;;;;7.17;6.00;;;;;;;;;;5152511;27;20793;-78
2021/06/05 07:00:51;;;;;;;7.37;6.30;;;;;;;;;;5165745;27;20753;-80
2021/06/05 07:03:19;;;;;;;13.17;8.03;;;;;;;;;;5166160;27;20465;-80
2021/06/05 07:05:46;;;;;;;14.90;13.30;;;;;;;;;;5166165;27;20555;-81
2021/06/05 07:08:17;;;;;;;9.73;7.77;;;;;;;;;;5172259;27;20499;-80
2021/06/05 07:10:46;;;;;;;6.17;5.57;;;;;;;;;;5184384;27;20486;-81
2021/06/05 07:13:14;;;;;;;6.40;5.57;;;;;;;;;;5185755;27;20462;-81
2021/06/05 07:15:41;;;;;;;7.80;5.73;;;;;;;;;;5175831;27;20537;-80
2021/06/05 07:18:09;;;;;;;7.77;6.10;;;;;;;;;;5168317;27;20463;-80
2021/06/05 07:20:37;;;;;;;6.73;5.50;;;;;;;;;;5172280;27;20599;-80
2021/06/05 07:23:04;;;;;;;10.20;5.90;;;;;;;;;;5146599;27;20457;-80
2021/06/05 07:25:32;;;;;;;9.10;5.90;;;;;;;;;;5159448;27;20508;-80
2021/06/05 07:28:11;;;;;;;7.43;5.27;;;;;;;;;;5168796;27;20452;-80
2021/06/05 07:30:38;;;;;;;8.47;5.70;;;;;;;;;;5175788;27;20487;-80
2021/06/05 07:33:05;;;;;;;9.20;5.37;;;;;;;;;;5183709;27;20958;-81
2021/06/05 07:35:32;;;;;;;7.33;5.70;;;;;;;;;;5172069;27;20453;-78
2021/06/05 07:38:00;;;;;;;7.17;5.63;;;;;;;;;;5161037;27;20461;-78
2021/06/05 07:40:27;;;;;;;7.97;6.70;;;;;;;;;;5180497;27;20573;-81
2021/06/05 07:42:55;;;;;;;7.97;5.07;;;;;;;;;;5170451;27;20921;-79
2021/06/05 07:45:23;;;;;;;8.43;4.97;;;;;;;;;;5164672;27;20437;-79
2021/06/05 07:47:51;;;;;;;6.03;4.90;;;;;;;;;;5165319;27;20464;-80
2021/06/05 07:50:19;;;;;;;6.13;4.37;;;;;;;;;;5157257;27;20843;-79
2021/06/05 07:52:46;;;;;;;5.87;4.67;;;;;;;;;;5161541;27;20979;-78
2021/06/05 07:55:13;;;;;;;7.90;5.57;;;;;;;;;;5167643;27;20456;-79
2021/06/05 07:57:40;;;;;;;6.73;4.30;;;;;;;;;;5174043;27;20811;-80
2021/06/05 08:00:12;;;;;;;8.83;4.60;;;;;;;;;;5184537;27;20598;-80
2021/06/05 08:02:41;;;;;;;8.33;4.23;;;;;;;;;;5174307;27;20661;-79
2021/06/05 08:05:10;;;;;;;7.00;5.07;;;;;;;;;;5167945;27;20478;-80
2021/06/05 08:07:37;;;;;;;6.20;4.90;;;;;;;;;;5159733;27;20521;-81
2021/06/05 08:10:05;;;;;;;6.13;4.70;;;;;;;;;;5162388;27;20463;-80
2021/06/05 08:12:32;;;;;;;8.57;4.47;;;;;;;;;;5149053;27;20885;-79
2021/06/05 08:14:59;;;;;;;6.40;4.10;;;;;;;;;;5161750;27;20460;-79
2021/06/05 08:17:27;;;;;;;8.13;4.73;;;;;;;;;;5153199;27;20500;-82
2021/06/05 08:19:57;;;;;;;5.60;4.33;;;;;;;;;;5129032;27;20553;-81
2021/06/05 08:22:26;;;;;;;5.60;4.10;;;;;;;;;;5155334;27;20809;-79
2021/06/05 08:24:54;;;;;;;6.33;4.73;;;;;;;;;;5167461;27;20453;-82
2021/06/05 08:27:22;;;;;;;5.83;4.53;;;;;;;;;;5166180;27;20461;-81
2021/06/05 08:29:49;;;;;;;5.50;4.23;;;;;;;;;;5169399;27;20475;-82
2021/06/05 08:32:16;;;;;;;6.60;4.40;;;;;;;;;;5169597;27;20464;-81
2021/06/05 08:34:44;;;;;;;5.50;3.87;;;;;;;;;;5158119;27;20471;-80
2021/06/05 08:37:16;;;;;;;8.63;5.80;;;;;;;;;;5166369;27;20514;-79
2021/06/05 08:39:43;;;;;;;6.57;4.50;;;;;;;;;;5163870;27;20465;-80
2021/06/05 08:42:15;;;;;;;6.20;4.70;;;;;;;;;;5161130;27;20857;-80
2021/06/05 08:44:57;;;;;;;5.27;4.40;;;;;;;;;;5168206;27;20480;-80
2021/06/05 08:47:27;;;;;;;5.53;3.40;;;;;;;;;;5167122;27;20460;-79
2021/06/05 08:49:55;;;;;;;6.10;4.47;;;;;;;;;;5165950;27;20473;-79
2021/06/05 08:52:32;;;;;;;6.87;4.33;;;;;;;;;;5151880;27;20454;-80
2021/06/05 08:55:01;;;;;;;6.13;4.30;;;;;;;;;;5160392;27;20459;-80
2021/06/05 08:57:32;;;;;;;6.93;4.87;;;;;;;;;;5174631;27;20463;-78
2021/06/05 09:00:02;;;;;;;6.10;4.20;;;;;;;;;;5172151;27;20479;-79
2021/06/05 09:02:32;;;;;;;5.80;4.43;;;;;;;;;;5170576;27;20495;-81
2021/06/05 09:04:59;;;;;;;5.10;4.40;;;;;;;;;;5170500;27;20531;-80
2021/06/05 09:07:26;;;;;;;5.60;4.37;;;;;;;;;;5173652;27;20527;-79
2021/06/05 09:09:56;;;;;;;5.53;4.73;;;;;;;;;;5168709;27;20781;-78
2021/06/05 09:12:24;;;;;;;11.50;5.40;;;;;;;;;;5178422;27;20484;-82
2021/06/05 09:14:53;;;;;;;5.93;5.13;;;;;;;;;;5176481;27;20448;-79
2021/06/05 09:17:21;;;;;;;5.33;4.40;;;;;;;;;;5169029;27;20457;-78
2021/06/05 09:20:02;;;;;;;5.30;4.53;;;;;;;;;;5170719;27;20536;-79
2021/06/05 09:22:32;;;;;;;5.37;3.97;;;;;;;;;;5169965;27;20512;-79
2021/06/05 09:25:17;;;;;;;6.17;4.40;;;;;;;;;;5162969;27;20488;-80
2021/06/05 09:27:44;;;;;;;7.03;4.10;;;;;;;;;;5159467;27;20553;-79
2021/06/05 09:30:24;;;;;;;8.33;4.50;;;;;;;;;;5164626;27;20845;-79
2021/06/05 09:32:57;;;;;;;5.57;3.93;;;;;;;;;;5146513;27;20543;-77
2021/06/05 09:35:26;;;;;;;6.50;4.00;;;;;;;;;;5164132;27;20495;-79
2021/06/05 09:37:54;;;;;;;5.40;4.20;;;;;;;;;;5176306;27;20615;-79
2021/06/05 09:40:27;;;;;;;8.17;4.67;;;;;;;;;;5152750;27;20505;-79
2021/06/05 09:42:56;;;;;;;6.73;4.90;;;;;;;;;;5180811;27;20463;-82
2021/06/05 09:45:26;;;;;;;7.93;4.50;;;;;;;;;;5169339;27;20552;-79
2021/06/05 09:47:53;;;;;;;5.03;3.93;;;;;;;;;;5163829;27;20468;-80
2021/06/05 09:50:28;;;;;;;5.70;3.90;;;;;;;;;;5171013;27;20456;-79
2021/06/05 09:52:56;;;;;;;6.27;4.00;;;;;;;;;;5188218;27;20515;-78
2021/06/05 09:55:31;;;;;;;7.77;4.93;;;;;;;;;;5165614;27;20460;-80
2021/06/05 09:58:00;;;;;;;6.30;4.33;;;;;;;;;;5176544;27;20524;-79
2021/06/05 10:00:29;;;;;;;5.73;4.37;;;;;;;;;;5166039;27;20475;-80
2021/06/05 10:03:14;;;;;;;5.30;3.80;;;;;;;;;;5143810;27;20525;-80
2021/06/05 10:05:42;;;;;;;6.27;4.73;;;;;;;;;;5143321;27;21053;-79
2021/06/05 10:08:20;;;;;;;6.53;4.30;;;;;;;;;;5167598;27;20458;-80
2021/06/05 10:10:51;;;;;;;8.43;4.03;;;;;;;;;;5157822;27;20453;-80
2021/06/05 10:13:22;;;;;;;7.37;4.80;;;;;;;;;;5153726;27;20472;-79
2021/06/05 10:15:53;;;;;;;7.53;4.80;;;;;;;;;;5165421;27;20452;-79
2021/06/05 10:18:23;;;;;;;6.60;4.10;;;;;;;;;;5167968;27;20453;-81
2021/06/05 10:20:54;;;;;;;6.97;3.83;;;;;;;;;;5156586;27;21060;-80
2021/06/05 10:23:25;;;;;;;6.47;4.70;;;;;;;;;;5173498;27;20511;-78
2021/06/05 10:25:57;;;;;;;7.47;3.60;;;;;;;;;;5160084;27;20831;-80
2021/06/05 10:28:26;;;;;;;6.67;4.00;;;;;;;;;;5171811;27;21070;-80
2021/06/05 10:30:54;;;;;;;7.10;4.33;;;;;;;;;;5182224;27;20448;-79
2021/06/05 10:33:41;;;;;;;5.60;3.63;;;;;;;;;;5167472;27;20453;-79
2021/06/05 10:36:14;;;;;;;5.17;3.33;;;;;;;;;;5169057;27;20449;-80
2021/06/05 10:38:43;;;;;;;4.70;3.60;;;;;;;;;;5166211;27;20480;-80
2021/06/05 10:41:16;;;;;;;5.37;3.80;;;;;;;;;;5177164;27;20519;-81
2021/06/05 10:43:55;;;;;;;6.40;4.47;;;;;;;;;;5164767;27;20553;-79
2021/06/05 10:46:30;;;;;;;5.00;3.60;;;;;;;;;;5146624;27;20463;-77
2021/06/05 10:49:05;;;;;;;5.87;4.00;;;;;;;;;;5162878;27;20510;-80
2021/06/05 10:51:35;;;;;;;4.47;3.17;;;;;;;;;;5151451;27;20653;-78
2021/06/05 10:54:04;;;;;;;5.17;3.60;;;;;;;;;;5155695;27;20739;-78
2021/06/05 10:56:35;;;;;;;7.13;4.23;;;;;;;;;;5158983;27;20467;-80
2021/06/05 10:59:02;;;;;;;4.60;3.50;;;;;;;;;;5183661;27;20848;-79
2021/06/05 11:01:49;;;;;;;7.57;3.43;;;;;;;;;;5180770;27;20621;-79
2021/06/05 11:04:35;;;;;;;8.50;6.00;;;;;;;;;;5147465;27;20453;-77
2021/06/05 11:07:29;;;;;;;6.70;4.50;;;;;;;;;;5165677;27;20452;-81
2021/06/05 11:09:58;;;;;;;4.53;2.93;;;;;;;;;;5124035;27;20471;-81
2021/06/05 11:12:43;;;;;;;5.93;3.27;;;;;;;;;;5180628;27;20534;-79
2021/06/05 11:15:31;;;;;;;6.30;4.20;;;;;;;;;;5180048;27;20444;-80
2021/06/05 11:18:16;;;;;;;5.33;3.60;;;;;;;;;;5169528;27;20535;-78
2021/06/05 11:20:43;;;;;;;6.30;4.03;;;;;;;;;;5167416;27;20501;-79
2021/06/05 11:23:28;;;;;;;5.73;4.23;;;;;;;;;;5177198;27;20484;-80
2021/06/05 11:25:57;;;;;;;6.97;4.13;;;;;;;;;;5167923;27;20851;-79
2021/06/05 11:28:49;;;;;;;4.33;3.40;;;;;;;;;;5179667;27;20852;-80
2021/06/05 11:31:35;;;;;;;6.17;5.50;;;;;;;;;;5167456;27;20454;-80
2021/06/05 11:34:04;;;;;;;4.53;3.57;;;;;;;;;;5171008;27;20487;-79
2021/06/05 11:36:39;;;;;;;5.70;3.80;;;;;;;;;;5175976;27;20458;-80
2021/06/05 11:39:08;;;;;;;5.30;4.20;;;;;;;;;;5185223;27;20480;-78
2021/06/05 11:41:48;;;;;;;8.73;5.53;;;;;;;;;;5160831;27;20552;-80
2021/06/05 11:44:20;;;;;;;6.57;4.70;;;;;;;;;;5176456;27;20492;-79
2021/06/05 11:46:49;;;;;;;6.70;4.20;;;;;;;;;;5167754;27;20479;-78
2021/06/05 11:49:35;;;;;;;6.20;4.00;;;;;;;;;;5163479;27;20512;-79
2021/06/05 11:52:17;;;;;;;5.90;3.80;;;;;;;;;;5170622;27;20491;-80
2021/06/05 11:54:46;;;;;;;4.70;3.83;;;;;;;;;;5176305;27;21117;-79
2021/06/05 11:57:15;;;;;;;6.60;4.00;;;;;;;;;;5173472;27;20511;-80
2021/06/05 11:59:44;;;;;;;6.03;4.00;;;;;;;;;;5181236;27;20507;-81
2021/06/05 12:02:16;;;;;;;4.60;3.40;;;;;;;;;;5174005;27;20824;-81
2021/06/05 12:04:46;;;;;;;5.40;3.57;;;;;;;;;;5173593;27;20771;-78
2021/06/05 12:07:22;;;;;;;6.70;4.13;;;;;;;;;;5166587;27;20457;-80
2021/06/05 12:09:55;;;;;;;5.63;3.80;;;;;;;;;;5130298;27;20450;-79
2021/06/05 12:12:24;;;;;;;11.53;4.60;;;;;;;;;;5161986;27;20536;-79
2021/06/05 12:14:59;;;;;;;6.43;4.50;;;;;;;;;;5166127;27;20453;-79
2021/06/05 12:17:37;;;;;;;4.77;3.87;;;;;;;;;;5162239;27;20456;-78
2021/06/05 12:20:10;;;;;;;5.53;4.40;;;;;;;;;;5165392;27;20606;-79
2021/06/05 12:22:38;;;;;;;8.03;4.77;;;;;;;;;;5169351;27;20444;-78
2021/06/05 12:25:08;;;;;;;6.13;3.87;;;;;;;;;;5171527;27;20440;-77
2021/06/05 12:27:37;;;;;;;5.93;3.70;;;;;;;;;;5168707;27;20500;-80
2021/06/05 12:30:11;;;;;;;7.70;4.23;;;;;;;;;;5166263;27;20763;-80
2021/06/05 12:32:40;;;;;;;6.13;4.40;;;;;;;;;;5134364;27;20449;-79
2021/06/05 12:35:24;;;;;;;13.73;10.10;;;;;;;;;;5163993;27;20452;-79
2021/06/05 12:37:52;;;;;;;6.10;4.00;;;;;;;;;;5161572;27;20873;-77
2021/06/05 12:40:25;;;;;;;9.13;4.67;;;;;;;;;;5163888;27;20548;-79
2021/06/05 12:42:52;;;;;;;6.63;4.13;;;;;;;;;;5168951;27;20485;-80
2021/06/05 12:45:23;;;;;;;6.00;4.40;;;;;;;;;;5167616;27;20499;-79
2021/06/05 12:47:52;;;;;;;5.87;4.30;;;;;;;;;;5172817;27;20465;-79
2021/06/05 12:50:22;;;;;;;7.67;4.47;;;;;;;;;;5181063;27;20464;-78
2021/06/05 12:52:50;;;;;;;6.90;4.83;;;;;;;;;;5168924;27;20525;-79
2021/06/05 12:55:21;;;;;;;5.47;3.50;;;;;;;;;;5150124;27;20802;-78
2021/06/05 12:57:49;;;;;;;5.20;3.40;;;;;;;;;;5147589;27;20461;-79
2021/06/05 13:00:23;;;;;;;5.00;3.10;;;;;;;;;;5153032;27;20445;-80
2021/06/05 13:02:51;;;;;;;4.30;3.43;;;;;;;;;;5164646;27;20572;-80
2021/06/05 13:05:20;;;;;;;23.70;17.97;;;;;;;;;;5172584;27;20538;-80
2021/06/05 13:07:48;;;;;;;5.20;4.07;;;;;;;;;;5181129;27;20471;-78
2021/06/05 13:10:18;;;;;;;6.00;4.67;;;;;;;;;;5164633;27;20453;-78
2021/06/05 13:12:49;;;;;;;4.33;3.40;;;;;;;;;;5168694;27;20792;-79
2021/06/05 13:15:19;;;;;;;4.73;3.30;;;;;;;;;;5182338;27;20487;-81
2021/06/05 13:17:53;;;;;;;5.17;3.80;;;;;;;;;;5174111;27;20529;-77
2021/06/05 13:20:26;;;;;;;5.70;4.20;;;;;;;;;;5155701;27;20434;-81
2021/06/05 13:23:08;;;;;;;5.37;3.63;;;;;;;;;;5175104;27;20475;-79
2021/06/05 13:25:35;;;;;;;3.97;3.10;;;;;;;;;;5184935;27;20463;-80
2021/06/05 13:28:12;;;;;;;7.90;4.90;;;;;;;;;;5160448;27;20884;-80
2021/06/05 13:30:41;;;;;;;4.63;3.00;;;;;;;;;;5163428;27;20448;-80
2021/06/05 13:33:23;;;;;;;6.27;3.80;;;;;;;;;;5155929;27;20930;-81
2021/06/05 13:35:51;;;;;;;7.60;5.20;;;;;;;;;;5166883;27;20460;-78
2021/06/05 13:38:20;;;;;;;5.10;3.80;;;;;;;;;;5166887;27;20488;-78
2021/06/05 13:40:47;;;;;;;5.07;3.33;;;;;;;;;;5146172;27;20482;-78
2021/06/05 13:43:16;;;;;;;5.00;3.83;;;;;;;;;;5161712;27;20536;-79
2021/06/05 13:45:43;;;;;;;6.27;5.17;;;;;;;;;;5159716;27;20513;-79
2021/06/05 13:48:11;;;;;;;7.03;4.90;;;;;;;;;;5167094;27;20540;-78
2021/06/05 13:50:43;;;;;;;6.00;5.03;;;;;;;;;;5166808;27;20520;-81
2021/06/05 13:53:12;;;;;;;5.40;3.57;;;;;;;;;;5166319;27;20463;-79
2021/06/05 13:55:41;;;;;;;5.90;4.33;;;;;;;;;;5148081;27;20445;-79
2021/06/05 13:58:13;;;;;;;5.77;4.70;;;;;;;;;;5156287;27;20458;-79
2021/06/05 14:00:42;;;;;;;8.80;5.00;;;;;;;;;;5154274;27;20479;-79
2021/06/05 14:03:09;;;;;;;7.10;4.70;;;;;;;;;;5161907;27;20485;-79
2021/06/05 14:05:37;;;;;;;6.03;4.80;;;;;;;;;;5148967;27;20486;-79
2021/06/05 14:08:04;;;;;;;6.30;4.10;;;;;;;;;;5162883;27;20453;-79
2021/06/05 14:10:32;;;;;;;10.57;6.57;;;;;;;;;;5162163;27;20513;-79
2021/06/05 14:12:59;;;;;;;7.40;6.13;;;;;;;;;;5153340;27;20442;-80
2021/06/05 14:15:27;;;;;;;5.83;4.43;;;;;;;;;;5149721;27;20905;-81
2021/06/05 14:17:58;;;;;;;12.20;5.50;;;;;;;;;;5147422;27;20564;-80
2021/06/05 14:20:28;;;;;;;11.03;7.23;;;;;;;;;;5161657;27;20449;-81
2021/06/05 14:22:56;;;;;;;10.97;6.27;;;;;;;;;;5161159;27;20464;-78
2021/06/05 14:25:24;;;;;;;9.50;7.20;;;;;;;;;;5168786;27;20509;-79
2021/06/05 14:27:53;;;;;;;6.03;4.37;;;;;;;;;;5168744;27;20525;-79
2021/06/05 14:30:22;;;;;;;6.93;5.00;;;;;;;;;;5159673;27;20437;-80
2021/06/05 14:32:49;;;;;;;6.53;4.87;;;;;;;;;;5162760;27;20459;-78
2021/06/05 14:35:19;;;;;;;8.50;6.07;;;;;;;;;;5166266;27;21101;-79
2021/06/05 14:37:47;;;;;;;7.57;5.13;;;;;;;;;;5144301;27;20561;-78
2021/06/05 14:40:15;;;;;;;6.70;6.07;;;;;;;;;;5145787;27;20449;-79
2021/06/05 14:42:43;;;;;;;6.20;4.97;;;;;;;;;;5160678;27;20461;-79
2021/06/05 14:45:11;;;;;;;5.30;4.80;;;;;;;;;;5159724;27;20445;-79
2021/06/05 14:47:38;;;;;;;6.00;5.40;;;;;;;;;;5148446;27;20521;-82
2021/06/05 14:50:06;;;;;;;5.93;5.33;;;;;;;;;;5163362;27;20541;-77
2021/06/05 14:52:35;;;;;;;5.97;5.00;;;;;;;;;;5167718;27;20559;-79
2021/06/05 14:55:02;;;;;;;9.30;5.67;;;;;;;;;;5170449;27;20460;-78
2021/06/05 14:57:32;;;;;;;6.80;6.20;;;;;;;;;;5172308;27;20467;-78
2021/06/05 15:00:04;;;;;;;7.57;6.00;;;;;;;;;;5175687;27;20449;-77